createdAt,value
2019-02-15T00:00:21.319Z,47.20
2019-02-15T00:02:49.836Z,47.30
2019-02-15T00:05:18.351Z,47.30
2019-02-15T00:07:46.774Z,47.20
2019-02-15T00:10:15.228Z,47.40
2019-02-15T00:12:43.651Z,47.10
2019-02-15T00:15:12.179Z,47.60
2019-02-15T00:17:45.318Z,47.50
2019-02-15T00:20:15.412Z,47.30
2019-02-15T00:22:43.875Z,47.70
2019-02-15T00:25:12.341Z,47.20
2019-02-15T00:27:40.843Z,47.10
2019-02-15T00:30:11.484Z,47.10
2019-02-15T00:32:39.932Z,47.10
2019-02-15T00:35:08.475Z,47.20
2019-02-15T00:37:36.930Z,47.40
2019-02-15T00:40:06.105Z,46.80
2019-02-15T00:42:34.545Z,47.30
2019-02-15T00:45:03.108Z,46.80
2019-02-15T00:47:33.194Z,47.00
2019-02-15T00:50:03.272Z,47.30
2019-02-15T00:52:33.373Z,46.60
2019-02-15T00:55:03.450Z,47.10
2019-02-15T00:57:36.339Z,46.50
2019-02-15T01:00:07.552Z,46.80
2019-02-15T01:02:40.626Z,46.50
2019-02-15T01:05:22.524Z,47.00
2019-02-15T01:07:52.657Z,47.00
2019-02-15T01:10:31.719Z,46.50
2019-02-15T01:13:01.822Z,46.80
2019-02-15T01:15:30.274Z,46.80
2019-02-15T01:17:58.771Z,46.50
2019-02-15T01:20:27.203Z,46.50
2019-02-15T01:22:55.661Z,46.40
2019-02-15T01:25:25.463Z,46.60
2019-02-15T01:27:55.662Z,46.60
2019-02-15T01:30:41.667Z,46.30
2019-02-15T01:33:28.449Z,46.50
2019-02-15T01:36:01.792Z,46.50
2019-02-15T01:38:34.656Z,46.60
2019-02-15T01:41:07.205Z,46.80
2019-02-15T01:43:55.307Z,46.90
2019-02-15T01:46:25.381Z,46.70
2019-02-15T01:48:53.847Z,47.00
2019-02-15T01:51:22.382Z,47.30
2019-02-15T01:53:50.872Z,46.90
2019-02-15T01:56:19.376Z,47.10
2019-02-15T01:58:47.815Z,46.70
2019-02-15T02:01:17.894Z,46.90
2019-02-15T02:03:50.834Z,47.00
2019-02-15T02:06:19.448Z,46.50
2019-02-15T02:08:48.123Z,47.10
2019-02-15T02:11:16.715Z,47.20
2019-02-15T02:13:49.629Z,47.90
2019-02-15T02:16:15.693Z,47.30
2019-02-15T02:18:44.208Z,47.30
2019-02-15T02:21:12.679Z,47.30
2019-02-15T02:23:41.212Z,47.70
2019-02-15T02:26:09.811Z,47.70
2019-02-15T02:28:38.274Z,47.50
2019-02-15T02:31:06.793Z,47.50
2019-02-15T02:33:35.315Z,47.60
2019-02-15T02:36:03.931Z,48.30
2019-02-15T02:38:32.379Z,48.30
2019-02-15T02:41:00.880Z,48.30
2019-02-15T02:43:29.341Z,48.50
2019-02-15T02:45:57.775Z,48.50
2019-02-15T02:48:26.293Z,48.60
2019-02-15T02:50:54.826Z,48.60
2019-02-15T02:53:23.274Z,48.70
2019-02-15T02:55:51.747Z,48.30
2019-02-15T02:58:20.267Z,48.40
2019-02-15T03:00:48.760Z,48.70
2019-02-15T03:03:17.210Z,49.10
2019-02-15T03:05:45.719Z,48.70
2019-02-15T03:08:14.192Z,49.20
2019-02-15T03:10:42.621Z,49.50
2019-02-15T03:13:11.154Z,49.00
2019-02-15T03:15:39.609Z,49.10
2019-02-15T03:18:08.085Z,49.40
2019-02-15T03:20:36.588Z,49.30
2019-02-15T03:23:05.020Z,49.10
2019-02-15T03:25:33.468Z,49.50
2019-02-15T03:28:01.905Z,49.20
2019-02-15T03:30:30.373Z,49.20
2019-02-15T03:32:58.890Z,49.30
2019-02-15T03:35:27.404Z,49.00
2019-02-15T03:37:57.478Z,49.00
2019-02-15T03:40:27.573Z,49.10
2019-02-15T03:42:56.084Z,49.60
2019-02-15T03:45:24.679Z,49.60
2019-02-15T03:47:53.124Z,49.20
2019-02-15T03:50:21.656Z,49.20
2019-02-15T03:52:50.080Z,49.10
2019-02-15T03:55:18.537Z,49.60
2019-02-15T03:57:46.971Z,49.20
2019-02-15T04:00:15.429Z,49.60
2019-02-15T04:02:43.858Z,49.70
2019-02-15T04:05:12.339Z,49.00
2019-02-15T04:07:40.909Z,49.10
2019-02-15T04:10:09.799Z,49.00
2019-02-15T04:12:38.225Z,49.30
2019-02-15T04:15:07.847Z,49.10
2019-02-15T04:17:36.319Z,49.40
2019-02-15T04:20:07.641Z,48.90
2019-02-15T04:22:36.159Z,48.80
2019-02-15T04:25:05.500Z,49.30
2019-02-15T04:27:33.936Z,49.20
2019-02-15T04:30:02.383Z,48.80
2019-02-15T04:32:30.929Z,49.00
2019-02-15T04:34:59.518Z,49.10
2019-02-15T04:37:27.990Z,48.80
2019-02-15T04:39:56.438Z,49.10
2019-02-15T04:42:24.952Z,49.20
2019-02-15T04:44:53.418Z,49.00
2019-02-15T04:47:21.945Z,48.70
2019-02-15T04:49:50.403Z,48.90
2019-02-15T04:52:18.981Z,48.80
2019-02-15T04:54:47.404Z,48.10
2019-02-15T04:57:15.966Z,48.10
2019-02-15T04:59:44.415Z,48.60
2019-02-15T05:02:14.071Z,48.50
2019-02-15T05:04:42.563Z,47.50
2019-02-15T05:07:11.054Z,48.70
2019-02-15T05:09:39.527Z,48.50
2019-02-15T05:12:07.980Z,48.70
2019-02-15T05:14:36.451Z,48.20
2019-02-15T05:17:04.882Z,48.40
2019-02-15T05:19:33.335Z,48.20
2019-02-15T05:22:01.762Z,48.60
2019-02-15T05:24:30.211Z,48.30
2019-02-15T05:26:58.670Z,48.60
2019-02-15T05:29:27.271Z,48.50
2019-02-15T05:31:55.789Z,48.40
2019-02-15T05:34:24.367Z,48.30
2019-02-15T05:36:52.819Z,48.30
2019-02-15T05:39:21.291Z,48.30
2019-02-15T05:41:49.815Z,48.70
2019-02-15T05:44:18.263Z,48.60
2019-02-15T05:46:46.706Z,48.40
2019-02-15T05:49:15.182Z,48.90
2019-02-15T05:51:43.691Z,48.50
2019-02-15T05:54:12.182Z,48.60
2019-02-15T05:56:40.675Z,48.50
2019-02-15T05:59:09.194Z,48.80
2019-02-15T06:01:38.560Z,48.40
2019-02-15T06:04:07.035Z,48.50
2019-02-15T06:06:35.508Z,48.90
2019-02-15T06:09:10.344Z,48.50
2019-02-15T06:11:38.963Z,49.00
2019-02-15T06:14:07.779Z,48.80
2019-02-15T06:16:36.207Z,49.00
2019-02-15T06:19:04.676Z,49.30
2019-02-15T06:21:34.664Z,49.00
2019-02-15T06:24:03.091Z,49.10
2019-02-15T06:26:31.550Z,49.60
2019-02-15T06:29:00.955Z,49.50
2019-02-15T06:31:29.444Z,48.90
2019-02-15T06:33:57.973Z,49.70
2019-02-15T06:36:45.820Z,49.80
2019-02-15T06:39:33.722Z,49.80
2019-02-15T06:42:21.559Z,49.70
2019-02-15T06:45:09.372Z,49.80
2019-02-15T06:47:57.148Z,50.00
2019-02-15T06:50:44.952Z,49.70
2019-02-15T06:53:32.912Z,50.30
2019-02-15T06:56:20.839Z,49.80
2019-02-15T06:59:27.807Z,50.10
2019-02-15T07:08:05.573Z,49.50
2019-02-15T07:10:53.508Z,50.70
2019-02-15T07:13:41.461Z,50.10
2019-02-15T07:16:29.261Z,50.30
2019-02-15T07:19:17.023Z,50.80
2019-02-15T07:22:05.076Z,51.30
2019-02-15T07:24:52.854Z,51.60
2019-02-15T07:27:40.651Z,50.60
2019-02-15T07:30:28.432Z,49.80
2019-02-15T07:33:16.231Z,49.10
2019-02-15T07:36:04.011Z,47.60
2019-02-15T07:38:51.798Z,46.50
2019-02-15T07:41:39.665Z,46.70
2019-02-15T07:44:27.649Z,47.30
2019-02-15T07:47:15.500Z,47.30
2019-02-15T07:50:04.062Z,47.60
2019-02-15T07:52:51.868Z,47.20
2019-02-15T07:55:39.643Z,46.40
2019-02-15T07:58:27.439Z,44.90
2019-02-15T08:01:15.925Z,44.80
2019-02-15T08:04:03.930Z,44.90
2019-02-15T08:06:51.788Z,44.60
2019-02-15T08:09:39.553Z,43.50
2019-02-15T08:12:27.654Z,43.00
2019-02-15T08:15:15.503Z,42.90
2019-02-15T08:18:03.395Z,42.20
2019-02-15T08:20:44.139Z,41.60
2019-02-15T08:23:25.147Z,41.50
2019-02-15T08:26:06.100Z,40.50
2019-02-15T08:28:46.960Z,40.00
2019-02-15T08:31:28.120Z,39.70
2019-02-15T08:34:08.978Z,38.30
2019-02-15T08:39:32.740Z,37.80
2019-02-15T08:42:13.448Z,37.40
2019-02-15T08:44:53.998Z,37.50
2019-02-15T08:47:34.812Z,36.90
2019-02-15T08:50:15.496Z,35.80
2019-02-15T08:52:56.229Z,36.10
2019-02-15T08:55:24.681Z,35.70
2019-02-15T08:58:12.574Z,35.50
2019-02-15T09:01:00.431Z,35.00
2019-02-15T09:03:28.951Z,34.50
2019-02-15T09:06:16.722Z,34.40
2019-02-15T09:09:05.280Z,33.90
2019-02-15T09:11:53.060Z,33.10
2019-02-15T09:14:40.844Z,32.80
2019-02-15T09:17:28.629Z,32.80
2019-02-15T09:20:09.317Z,31.70
2019-02-15T09:22:49.924Z,31.70
2019-02-15T09:25:30.836Z,31.40
2019-02-15T09:28:30.696Z,31.20
2019-02-15T09:31:10.953Z,30.60
2019-02-15T09:33:51.492Z,29.70
2019-02-15T09:39:15.313Z,29.80
2019-02-15T09:44:39.177Z,29.00
2019-02-15T09:47:19.719Z,28.70
2019-02-15T09:50:00.332Z,28.40
2019-02-15T09:52:40.873Z,27.20
2019-02-15T09:55:21.271Z,27.10
2019-02-15T09:58:02.189Z,27.40
2019-02-15T10:00:42.699Z,26.50
2019-02-15T10:03:23.575Z,26.80
2019-02-15T10:06:04.223Z,26.60
2019-02-15T10:08:44.960Z,26.60
2019-02-15T10:11:25.425Z,26.80
2019-02-15T10:14:06.251Z,26.40
2019-02-15T10:16:34.704Z,25.80
2019-02-15T10:19:03.139Z,26.10
2019-02-15T10:21:50.972Z,26.20
2019-02-15T10:24:19.440Z,26.10
2019-02-15T10:27:07.238Z,26.30
2019-02-15T10:29:35.771Z,25.20
2019-02-15T10:32:23.678Z,25.50
2019-02-15T10:35:11.674Z,25.70
2019-02-15T10:37:59.544Z,25.20
2019-02-15T10:40:28.219Z,25.30
2019-02-15T10:43:16.064Z,25.60
2019-02-15T10:46:03.871Z,25.40
2019-02-15T10:48:51.667Z,25.20
2019-02-15T10:51:39.479Z,24.40
2019-02-15T10:54:27.251Z,24.00
2019-02-15T10:57:15.112Z,24.20
2019-02-15T11:00:03.415Z,24.40
2019-02-15T11:02:51.224Z,24.50
2019-02-15T11:05:39.024Z,24.50
2019-02-15T11:08:26.915Z,24.60
2019-02-15T11:11:14.787Z,24.40
2019-02-15T11:14:02.567Z,23.80
2019-02-15T11:16:50.480Z,23.80
2019-02-15T11:19:31.344Z,23.30
2019-02-15T11:22:11.705Z,23.30
2019-02-15T11:24:52.177Z,22.90
2019-02-15T11:27:32.863Z,22.80
2019-02-15T11:30:13.456Z,23.10
2019-02-15T11:32:54.055Z,22.40
2019-02-15T11:35:34.603Z,22.40
2019-02-15T11:38:15.067Z,21.80
2019-02-15T11:40:55.880Z,22.20
2019-02-15T11:43:36.494Z,22.20
2019-02-15T11:46:16.938Z,22.00
2019-02-15T11:48:58.413Z,20.90
2019-02-15T11:51:39.095Z,20.60
2019-02-15T11:54:23.549Z,20.90
2019-02-15T11:57:02.354Z,20.20
2019-02-15T11:59:42.889Z,20.80
2019-02-15T12:02:23.756Z,20.90
2019-02-15T12:05:04.385Z,20.40
2019-02-15T12:07:45.147Z,21.20
2019-02-15T12:10:26.069Z,20.90
2019-02-15T12:13:06.480Z,21.40
2019-02-15T12:18:29.083Z,21.30
2019-02-15T12:21:09.412Z,21.60
2019-02-15T12:23:50.109Z,21.10
2019-02-15T12:26:30.668Z,21.50
2019-02-15T12:29:11.164Z,21.40
2019-02-15T12:31:52.064Z,21.40
2019-02-15T12:34:32.531Z,21.20
2019-02-15T12:37:13.064Z,21.30
2019-02-15T12:39:53.890Z,21.10
2019-02-15T12:42:34.599Z,21.00
2019-02-15T12:45:15.514Z,21.10
2019-02-15T12:47:56.408Z,20.90
2019-02-15T12:50:37.231Z,20.70
2019-02-15T12:53:18.131Z,20.10
2019-02-15T12:55:58.731Z,20.70
2019-02-15T12:58:39.587Z,20.80
2019-02-15T13:01:20.392Z,20.50
2019-02-15T13:04:01.140Z,20.20
2019-02-15T13:06:43.114Z,20.20
2019-02-15T13:09:23.573Z,19.90
2019-02-15T13:12:04.293Z,20.00
2019-02-15T13:14:45.020Z,19.70
2019-02-15T13:17:25.685Z,19.60
2019-02-15T13:20:06.318Z,18.50
2019-02-15T13:22:47.049Z,18.60
2019-02-15T13:25:34.938Z,18.60
2019-02-15T13:28:10.083Z,18.50
2019-02-15T13:30:51.229Z,17.90
2019-02-15T13:33:31.428Z,18.90
2019-02-15T13:36:11.774Z,18.70
2019-02-15T13:38:52.698Z,18.60
2019-02-15T13:41:32.987Z,18.70
2019-02-15T13:44:13.743Z,18.10
2019-02-15T13:46:54.572Z,18.20
2019-02-15T13:49:35.125Z,18.60
2019-02-15T13:52:16.035Z,18.40
2019-02-15T13:54:57.039Z,18.60
2019-02-15T13:57:37.896Z,18.30
2019-02-15T14:00:18.552Z,17.70
2019-02-15T14:02:59.423Z,18.20
2019-02-15T14:05:40.038Z,18.50
2019-02-15T14:11:03.512Z,19.40
2019-02-15T14:13:44.340Z,18.80
2019-02-15T14:16:24.978Z,18.50
2019-02-15T14:19:05.283Z,17.90
2019-02-15T14:21:46.188Z,18.40
2019-02-15T14:24:26.728Z,18.20
2019-02-15T14:27:07.643Z,17.70
2019-02-15T14:29:48.375Z,18.10
2019-02-15T14:32:29.032Z,18.10
2019-02-15T14:35:09.442Z,18.30
2019-02-15T14:37:50.548Z,18.30
2019-02-15T14:40:31.500Z,18.10
2019-02-15T14:43:12.051Z,17.20
2019-02-15T14:45:52.745Z,17.60
2019-02-15T14:51:16.127Z,17.50
2019-02-15T14:53:56.441Z,17.40
2019-02-15T14:56:37.266Z,17.60
2019-02-15T14:59:18.336Z,17.70
2019-02-15T15:01:59.123Z,17.80
2019-02-15T15:04:41.386Z,17.80
2019-02-15T15:07:22.568Z,18.20
2019-02-15T15:10:03.389Z,19.10
2019-02-15T15:12:44.233Z,19.70
2019-02-15T15:15:25.493Z,19.80
2019-02-15T15:18:12.780Z,20.70
2019-02-15T15:20:48.691Z,21.30
2019-02-15T15:23:29.780Z,21.60
2019-02-15T15:26:12.085Z,22.20
2019-02-15T15:28:52.815Z,22.60
2019-02-15T15:31:33.117Z,22.50
2019-02-15T15:34:13.959Z,23.40
2019-02-15T15:36:54.771Z,23.30
2019-02-15T15:39:35.776Z,23.80
2019-02-15T15:42:16.321Z,24.10
2019-02-15T15:44:56.988Z,24.00
2019-02-15T15:47:37.239Z,24.40
2019-02-15T15:50:17.807Z,24.50
2019-02-15T15:52:58.542Z,24.80
2019-02-15T15:55:39.098Z,25.10
2019-02-15T15:58:19.570Z,25.50
2019-02-15T16:00:59.984Z,25.60
2019-02-15T16:03:40.795Z,25.90
2019-02-15T16:06:24.542Z,25.80
2019-02-15T16:09:04.696Z,26.20
2019-02-15T16:11:45.398Z,26.30
2019-02-15T16:14:25.793Z,26.60
2019-02-15T16:17:06.666Z,26.40
2019-02-15T16:19:49.206Z,26.80
2019-02-15T16:22:30.297Z,26.80
2019-02-15T16:25:11.099Z,26.40
2019-02-15T16:27:51.788Z,27.00
2019-02-15T16:30:32.532Z,26.90
2019-02-15T16:33:13.505Z,26.60
2019-02-15T16:35:53.830Z,27.10
2019-02-15T16:38:34.533Z,27.40
2019-02-15T16:43:57.014Z,27.10
2019-02-15T16:46:37.384Z,27.20
2019-02-15T16:49:18.090Z,27.80
2019-02-15T16:51:58.817Z,27.90
2019-02-15T16:54:39.525Z,28.10
2019-02-15T16:57:20.308Z,28.10
2019-02-15T17:00:01.255Z,28.40
2019-02-15T17:02:41.618Z,28.50
2019-02-15T17:05:22.376Z,28.60
2019-02-15T17:08:02.986Z,28.90
2019-02-15T17:10:43.705Z,28.90
2019-02-15T17:13:24.571Z,29.20
2019-02-15T17:16:05.456Z,29.00
2019-02-15T17:18:51.736Z,29.70
2019-02-15T17:21:29.160Z,29.80
2019-02-15T17:24:10.379Z,30.40
2019-02-15T17:26:51.254Z,30.10
2019-02-15T17:29:32.226Z,30.60
2019-02-15T17:32:12.788Z,30.60
2019-02-15T17:34:53.613Z,30.60
2019-02-15T17:37:34.311Z,30.80
2019-02-15T17:40:14.932Z,30.60
2019-02-15T17:42:55.328Z,30.90
2019-02-15T17:45:35.797Z,30.90
2019-02-15T17:48:04.294Z,31.20
2019-02-15T17:50:33.095Z,31.40
2019-02-15T17:53:01.562Z,32.20
2019-02-15T17:55:49.418Z,31.60
2019-02-15T17:58:37.184Z,31.80
2019-02-15T18:01:24.978Z,32.00
2019-02-15T18:04:12.855Z,31.50
2019-02-15T18:07:00.738Z,32.50
2019-02-15T18:09:48.639Z,32.70
2019-02-15T18:12:36.430Z,32.70
2019-02-15T18:15:24.236Z,32.90
2019-02-15T18:18:12.040Z,33.50
2019-02-15T18:20:52.643Z,33.50
2019-02-15T18:23:33.545Z,33.70
2019-02-15T18:26:14.146Z,34.10
2019-02-15T18:28:54.880Z,34.10
2019-02-15T18:31:35.790Z,33.90
2019-02-15T18:36:53.479Z,35.00
2019-02-15T18:39:41.262Z,34.90
2019-02-15T18:42:29.051Z,35.20
2019-02-15T18:45:16.948Z,35.10
2019-02-15T18:48:04.763Z,35.30
2019-02-15T18:50:52.551Z,35.20
2019-02-15T18:56:35.475Z,35.40
2019-02-15T18:59:23.323Z,35.70
2019-02-15T19:02:11.119Z,35.80
2019-02-15T19:04:58.895Z,35.90
2019-02-15T19:07:47.040Z,35.80
2019-02-15T19:10:34.899Z,36.00
2019-02-15T19:13:22.688Z,35.50
2019-02-15T19:16:10.477Z,36.00
2019-02-15T19:18:58.320Z,36.00
2019-02-15T19:21:38.847Z,36.00
2019-02-15T19:24:19.827Z,36.20
2019-02-15T19:27:00.325Z,36.20
2019-02-15T19:29:40.784Z,35.80
2019-02-15T19:32:21.639Z,35.80
2019-02-15T19:35:02.431Z,36.10
2019-02-15T19:37:43.405Z,36.20
2019-02-15T19:40:24.203Z,36.30
2019-02-15T19:43:05.377Z,35.90
2019-02-15T19:45:45.635Z,36.20
2019-02-15T19:48:26.112Z,36.40
2019-02-15T19:51:06.591Z,36.60
2019-02-15T19:53:47.109Z,36.60
2019-02-15T19:56:28.029Z,37.00
2019-02-15T19:59:09.548Z,37.00
2019-02-15T20:01:49.929Z,37.10
2019-02-15T20:04:34.152Z,37.30
2019-02-15T20:07:14.496Z,37.20
2019-02-15T20:09:55.192Z,37.40
2019-02-15T20:12:35.511Z,37.50
2019-02-15T20:15:16.219Z,37.80
2019-02-15T20:17:56.956Z,37.80
2019-02-15T20:20:37.543Z,37.90
2019-02-15T20:23:18.913Z,37.90
2019-02-15T20:25:59.262Z,38.10
2019-02-15T20:28:40.055Z,37.30
2019-02-15T20:31:20.526Z,37.60
2019-02-15T20:34:00.943Z,37.80
2019-02-15T20:36:41.252Z,37.90
2019-02-15T20:39:22.116Z,38.10
2019-02-15T20:42:02.427Z,39.30
2019-02-15T20:44:43.083Z,38.60
2019-02-15T20:47:24.064Z,38.40
2019-02-15T20:50:04.384Z,38.80
2019-02-15T20:52:45.413Z,38.80
2019-02-15T20:55:26.651Z,39.10
2019-02-15T20:58:07.385Z,38.90
2019-02-15T21:00:48.040Z,39.20
2019-02-15T21:03:28.539Z,39.10
2019-02-15T21:06:09.037Z,39.20
2019-02-15T21:08:49.749Z,39.60
2019-02-15T21:11:30.138Z,39.40
2019-02-15T21:14:10.749Z,38.90
2019-02-15T21:16:51.363Z,39.20
2019-02-15T21:19:32.274Z,39.30
2019-02-15T21:22:12.901Z,39.50
2019-02-15T21:24:53.576Z,39.40
2019-02-15T21:27:22.013Z,38.80
2019-02-15T21:30:29.144Z,39.10
2019-02-15T21:33:16.919Z,39.00
2019-02-15T21:36:04.728Z,39.00
2019-02-15T21:38:52.500Z,38.60
2019-02-15T21:41:40.295Z,39.10
2019-02-15T21:44:28.062Z,39.00
2019-02-15T21:47:15.873Z,39.00
2019-02-15T21:50:03.951Z,38.90
2019-02-15T21:52:51.747Z,39.00
2019-02-15T21:55:39.762Z,39.10
2019-02-15T21:58:27.622Z,38.70
2019-02-15T22:01:15.567Z,39.10
2019-02-15T22:04:03.377Z,38.80
2019-02-15T22:06:51.180Z,39.10
2019-02-15T22:09:38.979Z,39.20
2019-02-15T22:12:26.827Z,39.20
2019-02-15T22:14:55.659Z,39.20
2019-02-15T22:17:58.507Z,39.40
2019-02-15T22:20:27.219Z,39.50
2019-02-15T22:23:08.184Z,39.60
2019-02-15T22:25:48.760Z,39.10
2019-02-15T22:28:29.550Z,39.70
2019-02-15T22:31:11.911Z,39.90
2019-02-15T22:33:52.723Z,39.80
2019-02-15T22:36:33.437Z,40.20
2019-02-15T22:39:14.481Z,40.40
2019-02-15T22:41:55.015Z,40.50
2019-02-15T22:44:35.905Z,40.00
2019-02-15T22:47:16.876Z,40.00
2019-02-15T22:49:57.624Z,40.40
2019-02-15T22:52:38.518Z,39.60
2019-02-15T22:55:18.908Z,40.10
2019-02-15T22:57:59.758Z,39.70
2019-02-15T23:03:34.829Z,39.10
2019-02-15T23:06:15.377Z,39.10
2019-02-15T23:08:56.475Z,39.50
2019-02-15T23:11:36.915Z,39.40
2019-02-15T23:14:17.538Z,39.30
2019-02-15T23:16:58.439Z,39.30
2019-02-15T23:19:39.395Z,39.20
2019-02-15T23:22:20.346Z,39.20
2019-02-15T23:25:01.375Z,39.10
2019-02-15T23:27:42.349Z,39.40
2019-02-15T23:30:22.992Z,39.10
2019-02-15T23:33:04.044Z,38.60
2019-02-15T23:35:44.355Z,39.00
2019-02-15T23:38:24.799Z,39.10
2019-02-15T23:41:05.708Z,39.20
2019-02-15T23:43:46.212Z,39.30
2019-02-15T23:46:27.287Z,39.60
2019-02-15T23:49:07.582Z,39.60
2019-02-15T23:51:48.501Z,39.20
2019-02-15T23:54:28.862Z,39.30
2019-02-15T23:57:09.487Z,39.60
2019-02-15T23:59:50.434Z,39.10
